createdAt,value
2018-08-03T00:01:50.611Z,12.63
2018-08-03T00:04:18.358Z,13.17
2018-08-03T00:06:45.916Z,13.93
2018-08-03T00:09:13.699Z,13.47
2018-08-03T00:11:41.499Z,12.03
2018-08-03T00:14:09.135Z,11.43
2018-08-03T00:16:36.857Z,13.13
2018-08-03T00:19:04.569Z,12.17
2018-08-03T00:21:32.153Z,11.80
2018-08-03T00:24:00.102Z,16.77
2018-08-03T00:26:27.921Z,12.17
2018-08-03T00:28:55.507Z,12.40
2018-08-03T00:31:23.303Z,10.83
2018-08-03T00:33:50.999Z,12.23
2018-08-03T00:36:18.539Z,12.53
2018-08-03T00:38:46.400Z,11.87
2018-08-03T00:41:14.026Z,12.97
2018-08-03T00:43:41.581Z,14.07
2018-08-03T00:46:09.303Z,11.93
2018-08-03T00:48:36.996Z,13.67
2018-08-03T00:51:04.632Z,11.70
2018-08-03T00:53:32.408Z,11.57
2018-08-03T00:56:00.098Z,12.83
2018-08-03T00:58:27.677Z,12.10
2018-08-03T01:00:55.458Z,12.80
2018-08-03T01:03:23.166Z,11.53
2018-08-03T01:05:50.740Z,13.00
2018-08-03T01:08:18.568Z,11.80
2018-08-03T01:10:46.433Z,13.43
2018-08-03T01:13:13.975Z,12.83
2018-08-03T01:15:41.724Z,13.13
2018-08-03T01:18:09.346Z,12.03
2018-08-03T01:20:36.924Z,15.00
2018-08-03T01:23:04.665Z,12.30
2018-08-03T01:25:32.317Z,14.30
2018-08-03T01:27:59.880Z,11.90
2018-08-03T01:30:27.603Z,14.10
2018-08-03T01:32:55.297Z,14.50
2018-08-03T01:35:22.856Z,12.97
2018-08-03T01:37:50.640Z,12.07
2018-08-03T01:40:18.406Z,12.30
2018-08-03T01:42:45.973Z,10.83
2018-08-03T01:45:13.674Z,12.87
2018-08-03T01:47:41.531Z,14.47
2018-08-03T01:50:09.215Z,14.03
2018-08-03T01:52:37.124Z,14.10
2018-08-03T01:55:05.057Z,12.83
2018-08-03T01:57:32.707Z,13.20
2018-08-03T02:00:00.435Z,13.17
2018-08-03T02:02:28.371Z,13.67
2018-08-03T02:04:55.920Z,12.70
2018-08-03T02:07:23.844Z,12.90
2018-08-03T02:09:52.057Z,13.73
2018-08-03T02:12:19.666Z,15.17
2018-08-03T02:14:47.524Z,12.63
2018-08-03T02:17:15.336Z,12.10
2018-08-03T02:19:42.910Z,17.27
2018-08-03T02:22:10.771Z,12.13
2018-08-03T02:24:38.550Z,12.43
2018-08-03T02:27:06.157Z,11.97
2018-08-03T02:29:33.981Z,13.30
2018-08-03T02:32:01.807Z,11.90
2018-08-03T02:34:29.434Z,12.73
2018-08-03T02:39:55.526Z,14.67
2018-08-03T02:42:23.180Z,12.73
2018-08-03T02:44:50.941Z,13.33
2018-08-03T02:47:18.821Z,14.17
2018-08-03T02:49:46.482Z,12.10
2018-08-03T02:52:14.346Z,13.30
2018-08-03T02:54:42.112Z,14.63
2018-08-03T02:57:09.670Z,12.43
2018-08-03T02:59:37.479Z,14.80
2018-08-03T03:02:05.391Z,14.47
2018-08-03T03:04:33.011Z,14.80
2018-08-03T03:07:00.712Z,15.47
2018-08-03T03:09:28.526Z,12.03
2018-08-03T03:11:56.138Z,14.07
2018-08-03T03:14:23.986Z,11.33
2018-08-03T03:16:51.929Z,13.33
2018-08-03T03:19:19.561Z,14.93
2018-08-03T03:21:47.443Z,11.60
2018-08-03T03:24:15.242Z,13.80
2018-08-03T03:26:43.158Z,12.17
2018-08-03T03:29:17.556Z,13.33
2018-08-03T03:31:45.160Z,14.13
2018-08-03T03:34:12.809Z,12.90
2018-08-03T03:36:40.981Z,10.53
2018-08-03T03:39:10.873Z,12.83
2018-08-03T03:41:38.453Z,12.00
2018-08-03T03:44:06.436Z,11.27
2018-08-03T03:46:34.287Z,14.07
2018-08-03T03:49:01.918Z,12.87
2018-08-03T03:51:29.909Z,12.70
2018-08-03T03:53:57.544Z,11.97
2018-08-03T03:56:25.203Z,12.40
2018-08-03T03:58:53.386Z,11.57
2018-08-03T04:01:21.035Z,11.10
2018-08-03T04:03:48.706Z,11.90
2018-08-03T04:06:16.644Z,12.97
2018-08-03T04:08:44.244Z,11.13
2018-08-03T04:11:11.886Z,10.67
2018-08-03T04:13:40.074Z,11.63
2018-08-03T04:16:07.149Z,10.43
2018-08-03T04:18:34.139Z,9.57
2018-08-03T04:21:01.938Z,12.37
2018-08-03T04:23:29.584Z,9.93
2018-08-03T04:25:57.211Z,9.90
2018-08-03T04:28:25.155Z,9.20
2018-08-03T04:30:52.782Z,9.63
2018-08-03T04:33:20.394Z,8.73
2018-08-03T04:35:48.271Z,9.93
2018-08-03T04:38:15.971Z,8.93
2018-08-03T04:40:43.588Z,8.90
2018-08-03T04:43:11.521Z,9.23
2018-08-03T04:45:39.123Z,9.30
2018-08-03T04:48:06.737Z,8.63
2018-08-03T04:50:34.783Z,9.23
2018-08-03T04:53:02.423Z,8.00
2018-08-03T04:55:30.077Z,9.20
2018-08-03T04:57:58.089Z,8.93
2018-08-03T05:00:25.773Z,8.60
2018-08-03T05:02:53.335Z,7.83
2018-08-03T05:05:21.272Z,8.40
2018-08-03T05:07:48.978Z,7.37
2018-08-03T05:10:16.572Z,9.40
2018-08-03T05:12:44.874Z,7.40
2018-08-03T05:15:12.533Z,8.60
2018-08-03T05:17:40.177Z,7.87
2018-08-03T05:20:08.328Z,8.90
2018-08-03T05:22:35.932Z,7.37
2018-08-03T05:25:03.862Z,7.87
2018-08-03T05:27:32.002Z,7.97
2018-08-03T05:29:59.869Z,8.70
2018-08-03T05:32:27.518Z,7.23
2018-08-03T05:34:55.338Z,8.67
2018-08-03T05:37:23.064Z,6.30
2018-08-03T05:39:50.657Z,7.27
2018-08-03T05:42:18.717Z,7.93
2018-08-03T05:44:46.297Z,7.17
2018-08-03T05:47:13.921Z,7.13
2018-08-03T05:49:42.092Z,7.07
2018-08-03T05:52:09.661Z,5.97
2018-08-03T05:54:37.234Z,6.47
2018-08-03T05:57:05.417Z,6.10
2018-08-03T05:59:33.071Z,6.30
2018-08-03T06:02:00.693Z,5.63
2018-08-03T06:04:28.582Z,9.00
2018-08-03T06:06:56.247Z,5.57
2018-08-03T06:09:23.952Z,6.13
2018-08-03T06:11:51.954Z,5.23
2018-08-03T06:14:19.639Z,4.10
2018-08-03T06:16:47.262Z,3.97
2018-08-03T06:19:15.449Z,3.67
2018-08-03T06:21:43.099Z,3.47
2018-08-03T06:24:10.685Z,3.53
2018-08-03T06:26:38.483Z,3.33
2018-08-03T06:29:06.189Z,2.43
2018-08-03T06:31:33.851Z,2.10
2018-08-03T06:34:01.935Z,2.80
2018-08-03T06:36:29.580Z,2.20
2018-08-03T06:38:57.180Z,2.47
2018-08-03T06:41:25.165Z,2.50
2018-08-03T06:43:52.784Z,2.47
2018-08-03T06:46:20.552Z,2.20
2018-08-03T06:48:48.555Z,2.63
2018-08-03T06:51:16.259Z,2.50
2018-08-03T06:53:43.928Z,2.60
2018-08-03T06:56:11.852Z,2.53
2018-08-03T06:58:39.464Z,2.13
2018-08-03T07:01:07.267Z,2.27
2018-08-03T07:03:35.210Z,2.43
2018-08-03T07:06:02.852Z,2.63
2018-08-03T07:08:30.467Z,2.30
2018-08-03T07:10:58.342Z,2.73
2018-08-03T07:13:25.951Z,2.87
2018-08-03T07:15:53.621Z,2.10
2018-08-03T07:18:21.639Z,2.00
2018-08-03T07:20:49.247Z,3.13
2018-08-03T07:23:16.851Z,2.80
2018-08-03T07:25:44.776Z,2.77
2018-08-03T07:28:12.536Z,2.50
2018-08-03T07:30:40.277Z,1.93
2018-08-03T07:33:08.117Z,3.77
2018-08-03T07:35:35.794Z,2.20
2018-08-03T07:38:03.473Z,2.30
2018-08-03T07:40:31.451Z,2.27
2018-08-03T07:42:59.080Z,2.40
2018-08-03T07:45:57.496Z,2.33
2018-08-03T07:48:25.110Z,2.20
2018-08-03T07:50:52.787Z,2.57
2018-08-03T07:53:20.651Z,1.90
2018-08-03T07:55:48.261Z,2.30
2018-08-03T07:58:15.901Z,1.97
2018-08-03T08:00:43.902Z,2.47
2018-08-03T08:03:11.518Z,2.30
2018-08-03T08:05:39.178Z,2.07
2018-08-03T08:08:07.170Z,2.07
2018-08-03T08:10:34.776Z,2.20
2018-08-03T08:13:02.437Z,2.20
2018-08-03T08:15:30.304Z,2.20
2018-08-03T08:17:57.881Z,1.63
2018-08-03T08:20:25.472Z,1.70
2018-08-03T08:22:53.267Z,1.60
2018-08-03T08:25:20.894Z,1.60
2018-08-03T08:27:48.564Z,1.80
2018-08-03T08:30:16.616Z,1.60
2018-08-03T08:32:44.266Z,1.50
2018-08-03T08:35:11.954Z,1.43
2018-08-03T08:37:39.921Z,1.73
2018-08-03T08:40:07.644Z,1.47
2018-08-03T08:42:35.332Z,1.40
2018-08-03T08:45:03.335Z,1.20
2018-08-03T08:47:31.119Z,1.10
2018-08-03T08:49:58.865Z,1.40
2018-08-03T08:52:26.743Z,1.30
2018-08-03T08:54:54.739Z,1.27
2018-08-03T08:57:22.386Z,3.00
2018-08-03T08:59:50.304Z,2.30
2018-08-03T09:02:18.197Z,1.47
2018-08-03T09:04:45.902Z,1.60
2018-08-03T09:07:13.629Z,1.37
2018-08-03T09:09:41.484Z,1.00
2018-08-03T09:12:09.187Z,0.97
2018-08-03T09:14:36.964Z,1.03
2018-08-03T09:17:04.871Z,1.20
2018-08-03T09:19:32.449Z,1.27
2018-08-03T09:22:00.423Z,0.80
2018-08-03T09:24:28.212Z,1.37
2018-08-03T09:26:55.911Z,0.87
2018-08-03T09:29:23.731Z,1.13
2018-08-03T09:31:51.598Z,0.87
2018-08-03T09:34:19.242Z,0.80
2018-08-03T09:36:47.011Z,0.80
2018-08-03T09:39:14.837Z,0.70
2018-08-03T09:41:42.547Z,1.03
2018-08-03T09:44:10.373Z,1.10
2018-08-03T09:46:38.217Z,1.37
2018-08-03T09:49:06.412Z,0.80
2018-08-03T09:51:34.194Z,1.00
2018-08-03T09:54:01.921Z,1.43
2018-08-03T09:56:44.608Z,1.33
2018-08-03T09:59:12.406Z,1.23
2018-08-03T10:01:40.130Z,1.50
2018-08-03T10:04:07.920Z,1.67
2018-08-03T10:06:35.740Z,1.30
2018-08-03T10:09:04.780Z,1.20
2018-08-03T10:11:32.582Z,1.30
2018-08-03T10:14:00.411Z,1.20
2018-08-03T10:16:28.099Z,1.30
2018-08-03T10:18:55.918Z,1.03
2018-08-03T10:21:23.599Z,1.10
2018-08-03T10:23:51.251Z,2.63
2018-08-03T10:26:19.071Z,3.50
2018-08-03T10:28:46.858Z,1.57
2018-08-03T10:31:14.456Z,1.17
2018-08-03T10:33:42.387Z,1.67
2018-08-03T10:36:10.180Z,2.33
2018-08-03T10:38:37.801Z,0.97
2018-08-03T10:41:05.568Z,0.90
2018-08-03T10:43:33.398Z,1.00
2018-08-03T10:46:01.102Z,0.80
2018-08-03T10:48:28.825Z,2.23
2018-08-03T10:50:56.602Z,1.47
2018-08-03T10:53:24.318Z,1.10
2018-08-03T10:55:51.974Z,1.10
2018-08-03T10:58:20.003Z,0.93
2018-08-03T11:00:47.572Z,0.90
2018-08-03T11:03:15.471Z,0.80
2018-08-03T11:05:43.337Z,0.80
2018-08-03T11:08:10.979Z,0.87
2018-08-03T11:10:38.808Z,0.73
2018-08-03T11:13:06.580Z,1.67
2018-08-03T11:15:34.231Z,1.33
2018-08-03T11:18:02.082Z,0.77
2018-08-03T11:20:29.963Z,1.60
2018-08-03T11:22:57.590Z,1.33
2018-08-03T11:25:25.228Z,0.60
2018-08-03T11:27:53.180Z,1.23
2018-08-03T11:30:20.816Z,0.60
2018-08-03T11:32:48.619Z,1.03
2018-08-03T11:35:16.535Z,0.50
2018-08-03T11:37:44.124Z,1.13
2018-08-03T11:40:11.954Z,0.60
2018-08-03T11:42:39.753Z,0.50
2018-08-03T11:45:08.401Z,0.70
2018-08-03T11:47:36.235Z,1.30
2018-08-03T11:50:05.167Z,0.53
2018-08-03T11:52:32.798Z,0.50
2018-08-03T11:55:00.593Z,0.40
2018-08-03T11:57:28.402Z,0.50
2018-08-03T11:59:55.958Z,0.47
2018-08-03T12:02:23.755Z,0.60
2018-08-03T12:04:51.448Z,0.57
2018-08-03T12:07:19.059Z,1.23
2018-08-03T12:09:46.924Z,0.50
2018-08-03T12:12:14.863Z,0.97
2018-08-03T12:14:42.498Z,0.60
2018-08-03T12:17:10.247Z,0.50
2018-08-03T12:19:38.142Z,1.80
2018-08-03T12:22:05.782Z,0.73
2018-08-03T12:24:33.513Z,0.37
2018-08-03T12:27:01.544Z,0.47
2018-08-03T12:29:29.145Z,0.40
2018-08-03T12:31:57.077Z,0.60
2018-08-03T12:34:24.972Z,2.23
2018-08-03T12:36:52.535Z,0.60
2018-08-03T12:39:20.278Z,0.40
2018-08-03T12:41:48.036Z,0.40
2018-08-03T12:44:15.664Z,0.43
2018-08-03T12:46:43.503Z,0.40
2018-08-03T12:49:11.294Z,0.97
2018-08-03T12:51:38.979Z,1.70
2018-08-03T12:54:06.802Z,0.50
2018-08-03T12:56:34.666Z,0.43
2018-08-03T12:59:02.355Z,0.70
2018-08-03T13:01:30.120Z,0.50
2018-08-03T13:03:57.921Z,0.33
2018-08-03T13:06:25.495Z,1.40
2018-08-03T13:08:53.206Z,0.30
2018-08-03T13:11:21.044Z,1.60
2018-08-03T13:13:48.705Z,0.40
2018-08-03T13:16:16.538Z,0.40
2018-08-03T13:18:44.361Z,0.50
2018-08-03T13:21:23.480Z,0.47
2018-08-03T13:23:56.829Z,0.40
2018-08-03T13:26:25.005Z,0.50
2018-08-03T13:28:53.240Z,0.40
2018-08-03T13:31:21.898Z,0.30
2018-08-03T13:33:50.393Z,1.07
2018-08-03T13:36:18.042Z,0.40
2018-08-03T13:38:46.531Z,0.40
2018-08-03T13:41:14.475Z,0.40
2018-08-03T13:43:42.152Z,1.17
2018-08-03T13:46:10.071Z,1.07
2018-08-03T13:48:37.931Z,0.40
2018-08-03T13:51:05.502Z,0.40
2018-08-03T13:53:33.331Z,0.50
2018-08-03T13:56:01.119Z,0.73
2018-08-03T13:58:28.729Z,0.50
2018-08-03T14:01:07.733Z,0.27
2018-08-03T14:03:35.192Z,0.40
2018-08-03T14:06:02.886Z,0.50
2018-08-03T14:08:30.893Z,0.30
2018-08-03T14:10:58.536Z,0.30
2018-08-03T14:13:26.211Z,0.40
2018-08-03T14:15:54.178Z,0.40
2018-08-03T14:18:21.780Z,0.43
2018-08-03T14:20:49.524Z,0.40
2018-08-03T14:23:17.508Z,0.40
2018-08-03T14:25:45.136Z,0.33
2018-08-03T14:28:12.982Z,0.30
2018-08-03T14:30:41.015Z,0.40
2018-08-03T14:33:08.622Z,0.70
2018-08-03T14:35:36.331Z,0.40
2018-08-03T14:38:04.582Z,0.40
2018-08-03T14:40:32.169Z,1.40
2018-08-03T14:42:59.873Z,0.50
2018-08-03T14:45:29.015Z,0.30
2018-08-03T14:47:56.683Z,1.30
2018-08-03T14:50:24.279Z,0.40
2018-08-03T14:52:52.263Z,0.50
2018-08-03T14:55:19.880Z,0.50
2018-08-03T14:57:47.517Z,0.50
2018-08-03T15:00:15.434Z,0.40
2018-08-03T15:02:43.073Z,1.40
2018-08-03T15:05:10.854Z,0.50
2018-08-03T15:07:38.872Z,0.40
2018-08-03T15:10:06.483Z,0.40
2018-08-03T15:12:34.153Z,0.70
2018-08-03T15:15:02.130Z,0.40
2018-08-03T15:17:29.765Z,0.50
2018-08-03T15:19:57.375Z,0.53
2018-08-03T15:22:25.570Z,0.50
2018-08-03T15:24:53.152Z,0.50
2018-08-03T15:27:20.785Z,0.47
2018-08-03T15:29:48.822Z,0.50
2018-08-03T15:32:16.500Z,0.97
2018-08-03T15:34:44.205Z,0.60
2018-08-03T15:37:12.092Z,0.80
2018-08-03T15:39:39.726Z,1.07
2018-08-03T15:42:07.371Z,0.53
2018-08-03T15:44:39.992Z,0.60
2018-08-03T15:47:22.193Z,0.60
2018-08-03T15:49:50.186Z,0.60
2018-08-03T15:52:17.816Z,0.40
2018-08-03T15:54:45.430Z,0.60
2018-08-03T15:57:13.229Z,0.40
2018-08-03T15:59:40.859Z,0.70
2018-08-03T16:02:08.522Z,0.47
2018-08-03T16:04:36.630Z,0.50
2018-08-03T16:07:04.155Z,0.40
2018-08-03T16:09:31.812Z,0.50
2018-08-03T16:11:59.838Z,1.23
2018-08-03T16:14:27.419Z,0.40
2018-08-03T16:16:55.066Z,0.50
2018-08-03T16:19:23.133Z,0.40
2018-08-03T16:21:50.756Z,0.60
2018-08-03T16:24:18.362Z,0.40
2018-08-03T16:26:46.265Z,0.40
2018-08-03T16:29:13.846Z,0.57
2018-08-03T16:31:41.541Z,0.50
2018-08-03T16:34:09.666Z,0.50
2018-08-03T16:36:37.239Z,0.40
2018-08-03T16:39:07.233Z,0.50
2018-08-03T16:41:35.437Z,0.50
2018-08-03T16:44:03.138Z,0.40
2018-08-03T16:46:30.888Z,0.57
2018-08-03T16:48:58.901Z,0.60
2018-08-03T16:51:26.521Z,0.50
2018-08-03T16:53:54.114Z,0.67
2018-08-03T16:56:21.969Z,0.50
2018-08-03T16:58:49.601Z,0.90
2018-08-03T17:01:17.211Z,1.43
2018-08-03T17:03:45.091Z,0.60
2018-08-03T17:06:12.674Z,0.70
2018-08-03T17:08:40.269Z,0.70
2018-08-03T17:11:08.295Z,0.60
2018-08-03T17:13:35.869Z,0.80
2018-08-03T17:16:03.490Z,0.67
2018-08-03T17:18:31.637Z,1.30
2018-08-03T17:20:59.214Z,0.40
2018-08-03T17:23:26.818Z,0.90
2018-08-03T17:25:54.790Z,0.40
2018-08-03T17:28:22.418Z,0.50
2018-08-03T17:30:50.055Z,0.50
2018-08-03T17:33:17.888Z,0.40
2018-08-03T17:35:45.537Z,0.70
2018-08-03T17:38:13.220Z,0.60
2018-08-03T17:40:41.136Z,0.50
2018-08-03T17:43:08.928Z,0.63
2018-08-03T17:45:36.577Z,0.60
2018-08-03T17:48:04.719Z,0.40
2018-08-03T17:50:32.396Z,0.60
2018-08-03T17:53:00.004Z,0.50
2018-08-03T17:55:27.860Z,0.43
2018-08-03T17:57:55.499Z,0.60
2018-08-03T18:00:23.147Z,0.40
2018-08-03T18:02:51.225Z,0.83
2018-08-03T18:05:18.810Z,0.40
2018-08-03T18:07:46.491Z,0.40
2018-08-03T18:10:14.394Z,0.67
2018-08-03T18:12:41.999Z,0.40
2018-08-03T18:15:09.765Z,0.50
2018-08-03T18:17:37.987Z,0.70
2018-08-03T18:20:05.865Z,0.50
2018-08-03T18:22:33.447Z,0.60
2018-08-03T18:25:01.461Z,0.70
2018-08-03T18:27:29.130Z,0.67
2018-08-03T18:29:56.694Z,0.70
2018-08-03T18:32:24.549Z,0.60
2018-08-03T18:34:52.157Z,0.50
2018-08-03T18:37:19.750Z,1.83
2018-08-03T18:39:47.657Z,0.67
2018-08-03T18:42:15.318Z,0.63
2018-08-03T18:44:42.915Z,0.77
2018-08-03T18:47:11.032Z,1.20
2018-08-03T18:49:38.689Z,0.80
2018-08-03T18:52:06.311Z,0.53
2018-08-03T18:54:34.240Z,0.60
2018-08-03T18:57:01.873Z,0.77
2018-08-03T18:59:29.550Z,0.50
2018-08-03T19:01:57.488Z,0.50
2018-08-03T19:04:25.110Z,0.70
2018-08-03T19:06:52.733Z,1.20
2018-08-03T19:09:20.750Z,0.60
2018-08-03T19:11:48.379Z,1.50
2018-08-03T19:14:16.032Z,0.50
2018-08-03T19:16:44.205Z,0.90
2018-08-03T19:19:11.815Z,0.67
2018-08-03T19:21:39.411Z,0.57
2018-08-03T19:24:07.553Z,1.27
2018-08-03T19:26:35.158Z,0.50
2018-08-03T19:29:02.803Z,1.70
2018-08-03T19:31:30.804Z,0.97
2018-08-03T19:33:58.396Z,0.60
2018-08-03T19:36:26.027Z,1.17
2018-08-03T19:38:53.951Z,0.50
2018-08-03T19:41:21.543Z,0.50
2018-08-03T19:43:49.192Z,0.53
2018-08-03T19:46:17.245Z,0.50
2018-08-03T19:48:45.041Z,0.97
2018-08-03T19:51:12.649Z,0.40
2018-08-03T19:53:40.598Z,0.83
2018-08-03T19:56:08.254Z,0.60
2018-08-03T19:58:35.862Z,0.80
2018-08-03T20:01:03.810Z,0.73
2018-08-03T20:03:31.474Z,0.50
2018-08-03T20:05:59.097Z,0.77
2018-08-03T20:08:27.048Z,1.60
2018-08-03T20:10:54.624Z,1.13
2018-08-03T20:13:22.195Z,0.60
2018-08-03T20:15:50.030Z,0.40
2018-08-03T20:18:17.659Z,1.93
2018-08-03T20:20:45.292Z,0.57
2018-08-03T20:23:13.238Z,0.70
2018-08-03T20:25:40.857Z,0.60
2018-08-03T20:28:08.443Z,1.47
2018-08-03T20:30:36.295Z,0.60
2018-08-03T20:33:03.982Z,0.60
2018-08-03T20:35:31.612Z,0.60
2018-08-03T20:37:59.487Z,1.17
2018-08-03T20:40:27.127Z,0.50
2018-08-03T20:42:54.728Z,0.80
2018-08-03T20:45:22.848Z,0.60
2018-08-03T20:47:50.481Z,0.60
2018-08-03T20:50:18.092Z,0.57
2018-08-03T20:52:46.110Z,0.60
2018-08-03T20:55:13.719Z,0.50
2018-08-03T20:57:41.348Z,0.80
2018-08-03T21:00:09.250Z,1.10
2018-08-03T21:02:36.893Z,0.80
2018-08-03T21:05:04.670Z,1.50
2018-08-03T21:07:32.614Z,0.60
2018-08-03T21:10:00.196Z,1.07
2018-08-03T21:12:27.889Z,1.17
2018-08-03T21:14:55.750Z,1.00
2018-08-03T21:17:23.378Z,0.83
2018-08-03T21:19:51.021Z,0.80
2018-08-03T21:22:18.836Z,0.90
2018-08-03T21:24:46.440Z,2.60
2018-08-03T21:27:14.113Z,0.70
2018-08-03T21:29:41.892Z,1.03
2018-08-03T21:32:09.547Z,0.70
2018-08-03T21:34:37.177Z,0.80
2018-08-03T21:37:04.981Z,0.67
2018-08-03T21:39:32.630Z,0.90
2018-08-03T21:42:00.243Z,0.80
2018-08-03T21:44:28.020Z,0.50
2018-08-03T21:46:55.671Z,0.60
2018-08-03T21:49:23.312Z,2.13
2018-08-03T21:51:51.127Z,0.60
2018-08-03T21:54:18.818Z,0.53
2018-08-03T21:56:46.447Z,0.97
2018-08-03T21:59:14.302Z,0.70
2018-08-03T22:01:42.008Z,0.57
2018-08-03T22:04:09.721Z,0.60
2018-08-03T22:09:10.785Z,0.60
2018-08-03T22:11:38.420Z,0.60
2018-08-03T22:14:07.929Z,0.50
2018-08-03T22:16:35.846Z,1.47
2018-08-03T22:19:03.666Z,0.90
2018-08-03T22:21:31.353Z,1.00
2018-08-03T22:23:59.232Z,0.87
2018-08-03T22:26:27.074Z,1.37
2018-08-03T22:28:54.798Z,0.60
2018-08-03T22:31:22.641Z,0.70
2018-08-03T22:33:50.333Z,1.50
2018-08-03T22:36:17.956Z,1.50
2018-08-03T22:38:45.791Z,0.90
2018-08-03T22:41:13.564Z,1.20
2018-08-03T22:43:41.174Z,0.80
2018-08-03T22:46:08.893Z,1.80
2018-08-03T22:48:36.754Z,0.70
2018-08-03T22:51:04.357Z,1.10
2018-08-03T22:53:32.225Z,1.17
2018-08-03T22:55:59.997Z,0.87
2018-08-03T22:58:27.682Z,1.00
2018-08-03T23:00:55.542Z,1.80
2018-08-03T23:03:23.228Z,1.30
2018-08-03T23:05:50.875Z,0.90
2018-08-03T23:08:18.827Z,1.27
2018-08-03T23:10:46.505Z,1.07
2018-08-03T23:13:14.135Z,1.90
2018-08-03T23:15:42.078Z,1.13
2018-08-03T23:18:09.828Z,1.00
2018-08-03T23:21:08.266Z,0.80
2018-08-03T23:23:36.065Z,0.70
2018-08-03T23:26:03.738Z,0.87
2018-08-03T23:28:31.610Z,0.80
2018-08-03T23:30:59.538Z,2.20
2018-08-03T23:35:54.325Z,1.00
2018-08-03T23:38:22.122Z,0.87
2018-08-03T23:40:49.728Z,0.90
2018-08-03T23:43:17.558Z,1.20
2018-08-03T23:45:45.505Z,1.30
2018-08-03T23:48:13.139Z,0.70
2018-08-03T23:50:41.091Z,1.37
2018-08-03T23:53:08.961Z,0.70
2018-08-03T23:55:36.555Z,1.23
2018-08-03T23:58:04.555Z,1.10
